Las Vegas, Nevada
Traffic Map
Current Weather Conditions
Las Vegas, Nevada
Few Clouds
Few Clouds
37°
Feels Like: 37°
Wind Chill: 37° Ceiling: Unl
Heat Index: 37° Visibility: 10mi
Dew Point: -7° Wind: 16mph
Humidity: 6% Direction: 190° (S)
Pressure: 29.83in Gusts: 0mph
Raw Report DataKLAS 240556Z 19014KT 10SM FEW150 37/M07 A2983 RMK AO2 SLP067 T03721072 10433 20367 51010
Traffic Incident Summary
Active as of:
Severity:
Category:
InformationThere was an issue retrieving the traffic information for this location. Please try a different location or try again shortly.
Advertisements
Track Severe Weather on mobile